createdAt,value
2023-04-26T00:00:56.889Z,95247.56
2023-04-26T00:04:39.771Z,95245.94
2023-04-26T00:08:22.506Z,95237.78
2023-04-26T00:12:05.592Z,95227.72
2023-04-26T00:15:49.649Z,95224.31
2023-04-26T00:19:32.271Z,95229.16
2023-04-26T00:23:14.948Z,95226.16
2023-04-26T00:26:57.607Z,95223.97
2023-04-26T00:30:42.155Z,95220.66
2023-04-26T00:34:26.379Z,95221.63
2023-04-26T00:38:09.008Z,95225.69
2023-04-26T00:41:52.330Z,95222.81
2023-04-26T00:45:35.732Z,95228.03
2023-04-26T00:49:23.537Z,95225.69
2023-04-26T00:53:08.113Z,95230.13
2023-04-26T00:56:52.055Z,95229.94
2023-04-26T01:00:34.762Z,95231.97
2023-04-26T01:04:18.239Z,95232.84
2023-04-26T01:08:05.469Z,95239.41
2023-04-26T01:11:49.550Z,95241.91
2023-04-26T01:15:33.456Z,95247.75
2023-04-26T01:19:16.670Z,95237.31
2023-04-26T01:23:00.703Z,95244.50
2023-04-26T01:26:45.799Z,95238.94
2023-04-26T01:30:28.734Z,95233.91
2023-04-26T01:34:11.792Z,95242.88
2023-04-26T01:37:54.432Z,95243.75
2023-04-26T01:41:38.450Z,95236.75
2023-04-26T01:45:21.074Z,95247.50
2023-04-26T01:49:03.701Z,95256.16
2023-04-26T01:52:46.381Z,95257.97
2023-04-26T01:56:29.175Z,95246.53
2023-04-26T02:00:14.165Z,95256.63
2023-04-26T02:03:56.816Z,95259.94
2023-04-26T02:07:39.735Z,95268.59
2023-04-26T02:11:23.086Z,95265.47
2023-04-26T02:15:06.829Z,95256.38
2023-04-26T02:18:51.126Z,95251.50
2023-04-26T02:22:34.026Z,95256.44
2023-04-26T02:26:16.710Z,95250.09
2023-04-26T02:29:59.331Z,95239.56
2023-04-26T02:33:42.059Z,95248.69
2023-04-26T02:37:27.087Z,95249.16
2023-04-26T02:41:09.728Z,95253.25
2023-04-26T02:44:52.419Z,95246.13
2023-04-26T02:48:35.056Z,95249.25
2023-04-26T02:52:17.890Z,95247.63
2023-04-26T02:56:01.900Z,95247.44
2023-04-26T02:59:44.661Z,95242.56
2023-04-26T03:03:27.530Z,95238.69
2023-04-26T03:07:10.452Z,95246.16
2023-04-26T03:10:53.092Z,95247.78
2023-04-26T03:14:37.179Z,95247.44
2023-04-26T03:18:19.804Z,95244.66
2023-04-26T03:22:02.550Z,95247.78
2023-04-26T03:25:45.400Z,95251.03
2023-04-26T03:29:28.142Z,95249.06
2023-04-26T03:33:13.436Z,95243.06
2023-04-26T03:36:56.892Z,95245.19
2023-04-26T03:40:39.490Z,95255.59
2023-04-26T03:44:22.181Z,95250.34
2023-04-26T03:48:05.303Z,95249.72
2023-04-26T03:51:49.427Z,95264.31
2023-04-26T03:55:32.082Z,95265.75
2023-04-26T03:59:16.975Z,95266.41
2023-04-26T04:03:00.157Z,95268.88
2023-04-26T04:06:43.161Z,95255.56
2023-04-26T04:10:27.400Z,95262.09
2023-04-26T04:14:10.011Z,95264.53
2023-04-26T04:17:52.744Z,95263.38
2023-04-26T04:21:35.557Z,95259.78
2023-04-26T04:25:21.113Z,95264.66
2023-04-26T04:29:09.175Z,95275.75
2023-04-26T04:32:52.044Z,95283.06
2023-04-26T04:36:34.765Z,95277.66
2023-04-26T04:40:17.826Z,95283.84
2023-04-26T04:44:01.665Z,95278.50
2023-04-26T04:47:46.121Z,95296.25
2023-04-26T04:51:29.048Z,95291.38
2023-04-26T04:55:11.821Z,95301.47
2023-04-26T04:58:54.663Z,95300.50
2023-04-26T05:02:37.903Z,95299.66
2023-04-26T05:06:22.478Z,95314.13
2023-04-26T05:10:05.958Z,95307.28
2023-04-26T05:13:51.579Z,95323.59
2023-04-26T05:17:35.528Z,95316.78
2023-04-26T05:21:18.245Z,95323.28
2023-04-26T05:25:02.258Z,95325.56
2023-04-26T05:28:44.896Z,95324.88
2023-04-26T05:32:27.494Z,95330.59
2023-04-26T05:36:11.046Z,95328.06
2023-04-26T05:39:53.687Z,95330.66
2023-04-26T05:43:38.372Z,95338.16
2023-04-26T05:47:20.967Z,95330.66
2023-04-26T05:51:04.037Z,95325.56
2023-04-26T05:54:46.754Z,95327.84
2023-04-26T05:58:29.400Z,95332.56
2023-04-26T06:02:13.509Z,95337.75
2023-04-26T06:05:57.913Z,95343.56
2023-04-26T06:09:43.750Z,95351.72
2023-04-26T06:13:26.409Z,95352.88
2023-04-26T06:17:09.503Z,95355.09
2023-04-26T06:20:54.167Z,95357.22
2023-04-26T06:24:36.777Z,95354.63
2023-04-26T06:28:19.419Z,95359.16
2023-04-26T06:32:02.029Z,95362.41
2023-04-26T06:35:44.660Z,95350.00
2023-04-26T06:39:28.633Z,95350.25
2023-04-26T06:43:11.531Z,95350.25
2023-04-26T06:46:55.393Z,95358.84
2023-04-26T06:50:39.919Z,95356.69
2023-04-26T06:54:22.609Z,95355.03
2023-04-26T06:58:06.609Z,95363.88
2023-04-26T07:01:49.777Z,95347.72
2023-04-26T07:05:32.465Z,95370.69
2023-04-26T07:09:15.102Z,95363.13
2023-04-26T07:12:57.888Z,95352.63
2023-04-26T07:16:41.999Z,95359.91
2023-04-26T07:20:27.797Z,95362.94
2023-04-26T07:24:10.416Z,95371.50
2023-04-26T07:27:53.102Z,95358.00
2023-04-26T07:31:35.778Z,95352.41
2023-04-26T07:35:20.017Z,95350.44
2023-04-26T07:39:02.835Z,95362.41
2023-04-26T07:42:46.741Z,95353.75
2023-04-26T07:46:29.413Z,95348.53
2023-04-26T07:50:12.263Z,95351.53
2023-04-26T07:53:56.506Z,95346.06
2023-04-26T07:57:39.152Z,95341.16
2023-04-26T08:01:21.885Z,95349.63
2023-04-26T08:05:05.808Z,95343.16
2023-04-26T08:08:50.747Z,95347.03
2023-04-26T08:12:36.205Z,95353.63
2023-04-26T08:16:19.073Z,95350.81
2023-04-26T08:20:01.742Z,95351.69
2023-04-26T08:23:44.436Z,95346.69
2023-04-26T08:27:28.178Z,95348.81
2023-04-26T08:31:12.234Z,95337.94
2023-04-26T08:34:55.399Z,95355.47
2023-04-26T08:38:38.036Z,95348.16
2023-04-26T08:42:22.108Z,95334.06
2023-04-26T08:46:07.635Z,95343.06
2023-04-26T08:49:59.526Z,95348.03
2023-04-26T08:53:43.047Z,95346.59
2023-04-26T08:57:26.208Z,95347.13
2023-04-26T09:01:09.491Z,95342.41
2023-04-26T09:04:53.612Z,95344.31
2023-04-26T09:08:36.853Z,95346.19
2023-04-26T09:12:20.187Z,95342.19
2023-04-26T09:16:04.804Z,95342.72
2023-04-26T09:19:50.285Z,95339.63
2023-04-26T09:23:35.190Z,95337.28
2023-04-26T09:27:18.161Z,95343.28
2023-04-26T09:31:00.878Z,95341.03
2023-04-26T09:34:47.709Z,95338.25
2023-04-26T09:38:30.603Z,95342.41
2023-04-26T09:42:18.914Z,95337.16
2023-04-26T09:46:01.659Z,95333.69
2023-04-26T09:49:46.681Z,95332.69
2023-04-26T09:53:31.076Z,95345.06
2023-04-26T09:57:19.643Z,95344.88
2023-04-26T10:01:03.505Z,95354.56
2023-04-26T10:04:47.737Z,95353.75
2023-04-26T10:08:30.876Z,95343.19
2023-04-26T10:12:15.040Z,95339.91
2023-04-26T10:15:59.339Z,95342.59
2023-04-26T10:19:44.817Z,95336.81
2023-04-26T10:23:27.812Z,95324.44
2023-04-26T10:27:10.509Z,95310.81
2023-04-26T10:30:56.988Z,95311.16
2023-04-26T10:34:41.619Z,95311.81
2023-04-26T10:38:24.290Z,95314.09
2023-04-26T10:42:24.060Z,95317.81
2023-04-26T10:46:38.619Z,95290.78
2023-04-26T10:50:22.708Z,95290.50
2023-04-26T10:54:06.817Z,95300.16
2023-04-26T10:57:51.909Z,95290.66
2023-04-26T11:01:34.600Z,95286.44
2023-04-26T11:05:42.965Z,95280.88
2023-04-26T11:09:36.097Z,95278.50
2023-04-26T11:13:22.129Z,95280.13
2023-04-26T11:17:05.751Z,95268.00
2023-04-26T11:20:49.878Z,95266.78
2023-04-26T11:24:33.046Z,95255.72
2023-04-26T11:28:15.893Z,95244.53
2023-04-26T11:32:00.171Z,95247.34
2023-04-26T11:35:42.865Z,95243.06
2023-04-26T11:39:27.131Z,95255.47
2023-04-26T11:43:10.659Z,95257.47
2023-04-26T11:46:53.576Z,95259.50
2023-04-26T11:50:38.164Z,95264.97
2023-04-26T11:54:39.929Z,95254.22
2023-04-26T11:58:22.792Z,95261.84
2023-04-26T12:02:08.354Z,95255.38
2023-04-26T12:05:56.074Z,95247.69
2023-04-26T12:09:42.256Z,95252.50
2023-04-26T12:13:26.157Z,95248.09
2023-04-26T12:17:11.595Z,95253.75
2023-04-26T12:20:59.298Z,95259.00
2023-04-26T12:24:48.088Z,95257.97
2023-04-26T12:28:30.764Z,95256.22
2023-04-26T12:32:13.378Z,95253.34
2023-04-26T12:35:57.627Z,95249.75
2023-04-26T12:39:40.294Z,95254.53
2023-04-26T12:43:26.216Z,95250.59
2023-04-26T12:47:08.888Z,95257.31
2023-04-26T12:50:51.724Z,95252.78
2023-04-26T12:54:34.409Z,95234.97
2023-04-26T12:58:17.036Z,95236.69
2023-04-26T13:02:01.233Z,95243.19
2023-04-26T13:05:43.962Z,95244.72
2023-04-26T13:09:27.060Z,95234.84
2023-04-26T13:13:09.712Z,95228.00
2023-04-26T13:16:52.681Z,95228.88
2023-04-26T13:20:36.946Z,95217.47
2023-04-26T13:24:19.615Z,95220.78
2023-04-26T13:28:04.739Z,95229.66
2023-04-26T13:31:47.463Z,95222.47
2023-04-26T13:35:30.093Z,95224.59
2023-04-26T13:39:16.544Z,95212.25
2023-04-26T13:42:59.445Z,95216.44
2023-04-26T13:46:42.285Z,95209.34
2023-04-26T13:50:24.991Z,95202.53
2023-04-26T13:54:07.945Z,95201.63
2023-04-26T13:57:51.912Z,95194.53
2023-04-26T14:01:35.774Z,95194.63
2023-04-26T14:05:18.658Z,95188.25
2023-04-26T14:09:01.656Z,95192.88
2023-04-26T14:12:44.394Z,95186.78
2023-04-26T14:16:28.485Z,95180.91
2023-04-26T14:20:12.311Z,95186.25
2023-04-26T14:23:56.452Z,95182.09
2023-04-26T14:27:39.478Z,95178.25
2023-04-26T14:31:22.607Z,95192.88
2023-04-26T14:35:07.168Z,95203.31
2023-04-26T14:38:49.893Z,95194.97
2023-04-26T14:42:32.942Z,95197.28
2023-04-26T14:46:18.788Z,95186.94
2023-04-26T14:50:01.690Z,95177.56
2023-04-26T14:53:45.798Z,95185.25
2023-04-26T14:57:28.412Z,95185.56
2023-04-26T15:01:11.162Z,95186.97
2023-04-26T15:04:56.574Z,95188.38
2023-04-26T15:08:39.232Z,95195.09
2023-04-26T15:12:23.311Z,95177.88
2023-04-26T15:16:07.996Z,95178.47
2023-04-26T15:19:50.933Z,95184.69
2023-04-26T15:23:33.977Z,95183.59
2023-04-26T15:27:16.642Z,95178.41
2023-04-26T15:31:04.412Z,95182.91
2023-04-26T15:34:47.637Z,95166.06
2023-04-26T15:38:30.227Z,95166.06
2023-04-26T15:42:12.932Z,95172.38
2023-04-26T15:45:56.110Z,95173.69
2023-04-26T15:49:43.076Z,95171.22
2023-04-26T15:53:25.857Z,95172.78
2023-04-26T15:57:08.930Z,95176.75
2023-04-26T16:00:51.631Z,95178.53
2023-04-26T16:04:34.362Z,95191.38
2023-04-26T16:08:36.824Z,95186.88
2023-04-26T16:12:22.393Z,95182.81
2023-04-26T16:16:07.770Z,95183.00
2023-04-26T16:19:50.610Z,95183.00
2023-04-26T16:23:34.656Z,95173.00
2023-04-26T16:27:17.595Z,95182.13
2023-04-26T16:31:00.548Z,95184.25
2023-04-26T16:34:43.187Z,95183.88
2023-04-26T16:38:25.897Z,95187.31
2023-04-26T16:42:10.100Z,95177.25
2023-04-26T16:45:59.861Z,95174.91
2023-04-26T16:49:42.563Z,95184.22
2023-04-26T16:53:25.310Z,95179.75
2023-04-26T16:57:08.744Z,95189.97
2023-04-26T17:00:52.943Z,95194.13
2023-04-26T17:04:35.743Z,95196.50
2023-04-26T17:08:19.771Z,95200.47
2023-04-26T17:12:02.658Z,95198.56
2023-04-26T17:15:45.384Z,95197.88
2023-04-26T17:19:29.802Z,95201.25
2023-04-26T17:23:12.452Z,95199.13
2023-04-26T17:26:55.059Z,95209.50
2023-04-26T17:30:37.765Z,95207.91
2023-04-26T17:34:20.387Z,95206.56
2023-04-26T17:38:04.659Z,95215.34
2023-04-26T17:41:47.304Z,95214.59
2023-04-26T17:45:29.971Z,95222.44
2023-04-26T17:49:12.622Z,95232.66
2023-04-26T17:52:55.300Z,95232.88
2023-04-26T17:56:39.279Z,95237.59
2023-04-26T18:00:22.123Z,95237.06
2023-04-26T18:04:05.104Z,95237.53
2023-04-26T18:07:48.128Z,95247.47
2023-04-26T18:11:30.738Z,95240.25
2023-04-26T18:15:14.707Z,95237.25
2023-04-26T18:18:57.542Z,95250.06
2023-04-26T18:22:40.224Z,95252.94
2023-04-26T18:26:22.996Z,95257.41
2023-04-26T18:30:07.795Z,95259.03
2023-04-26T18:33:51.798Z,95272.19
2023-04-26T18:37:34.504Z,95265.13
2023-04-26T18:41:17.890Z,95264.34
2023-04-26T18:45:01.007Z,95280.13
2023-04-26T18:48:43.695Z,95277.91
2023-04-26T18:52:27.657Z,95285.81
2023-04-26T18:56:10.329Z,95289.28
2023-04-26T18:59:53.073Z,95289.69
2023-04-26T19:03:35.824Z,95302.03
2023-04-26T19:07:18.556Z,95301.19
2023-04-26T19:11:02.673Z,95303.22
2023-04-26T19:14:45.301Z,95297.97
2023-04-26T19:18:29.755Z,95303.00
2023-04-26T19:22:12.509Z,95299.94
2023-04-26T19:25:55.133Z,95300.75
2023-04-26T19:29:39.207Z,95303.19
2023-04-26T19:33:21.836Z,95306.41
2023-04-26T19:37:04.524Z,95302.34
2023-04-26T19:40:47.168Z,95307.16
2023-04-26T19:44:30.780Z,95315.63
2023-04-26T19:48:14.770Z,95309.97
2023-04-26T19:51:57.438Z,95310.75
2023-04-26T19:55:40.969Z,95320.44
2023-04-26T19:59:23.630Z,95317.59
2023-04-26T20:03:06.687Z,95317.19
2023-04-26T20:06:51.066Z,95321.19
2023-04-26T20:10:34.629Z,95320.78
2023-04-26T20:14:17.932Z,95318.78
2023-04-26T20:18:02.136Z,95317.78
2023-04-26T20:21:44.881Z,95317.78
2023-04-26T20:25:28.883Z,95320.38
2023-04-26T20:29:11.777Z,95314.72
2023-04-26T20:32:54.490Z,95315.16
2023-04-26T20:36:37.235Z,95327.25
2023-04-26T20:40:20.064Z,95326.88
2023-04-26T20:44:06.373Z,95329.50
2023-04-26T20:47:49.080Z,95328.88
2023-04-26T20:51:31.688Z,95335.91
2023-04-26T20:55:14.382Z,95336.00
2023-04-26T20:58:57.613Z,95342.06
2023-04-26T21:02:41.761Z,95339.47
2023-04-26T21:06:24.666Z,95339.72
2023-04-26T21:10:08.226Z,95347.81
2023-04-26T21:13:50.859Z,95343.19
2023-04-26T21:17:33.499Z,95334.31
2023-04-26T21:21:17.662Z,95330.06
2023-04-26T21:25:00.798Z,95335.31
2023-04-26T21:28:43.487Z,95347.81
2023-04-26T21:32:26.188Z,95346.19
2023-04-26T21:36:09.317Z,95347.00
2023-04-26T21:39:53.578Z,95331.84
2023-04-26T21:43:36.474Z,95339.66
2023-04-26T21:47:19.850Z,95333.00
2023-04-26T21:51:02.620Z,95332.38
2023-04-26T21:54:45.816Z,95348.91
2023-04-26T21:58:29.830Z,95345.66
2023-04-26T22:02:12.609Z,95343.63
2023-04-26T22:05:55.289Z,95348.06
2023-04-26T22:09:38.028Z,95344.63
2023-04-26T22:13:20.685Z,95337.56
2023-04-26T22:17:04.714Z,95345.03
2023-04-26T22:20:47.432Z,95338.78
2023-04-26T22:24:30.081Z,95340.78
2023-04-26T22:28:12.775Z,95339.56
2023-04-26T22:31:55.560Z,95347.63
2023-04-26T22:35:39.867Z,95346.19
2023-04-26T22:39:25.581Z,95342.34
2023-04-26T22:43:08.245Z,95350.22
2023-04-26T22:46:51.251Z,95340.13
2023-04-26T22:50:33.876Z,95348.38
2023-04-26T22:54:17.858Z,95352.38
2023-04-26T22:58:02.974Z,95354.75
2023-04-26T23:01:45.720Z,95357.53
2023-04-26T23:05:28.413Z,95359.88
2023-04-26T23:09:11.499Z,95356.66
2023-04-26T23:12:56.276Z,95360.28
2023-04-26T23:16:41.260Z,95356.84
2023-04-26T23:20:23.944Z,95359.47
2023-04-26T23:24:09.707Z,95357.84
2023-04-26T23:27:52.410Z,95345.72
2023-04-26T23:31:36.509Z,95356.59
2023-04-26T23:35:19.659Z,95348.94
2023-04-26T23:39:02.383Z,95358.59
2023-04-26T23:42:45.055Z,95352.31
2023-04-26T23:46:27.752Z,95350.44
2023-04-26T23:50:12.208Z,95353.25
2023-04-26T23:53:54.893Z,95349.22
2023-04-26T23:57:37.650Z,95340.72
